createdAt,value
2023-05-19T00:01:53.148Z,102256.23
2023-05-19T00:04:23.171Z,102257.29
2023-05-19T00:06:54.683Z,102254.15
2023-05-19T00:09:24.278Z,102253.48
2023-05-19T00:11:54.374Z,102260.52
2023-05-19T00:14:24.929Z,102256.06
2023-05-19T00:16:56.168Z,102260.45
2023-05-19T00:19:26.137Z,102260.33
2023-05-19T00:21:56.191Z,102261.30
2023-05-19T00:24:26.229Z,102258.33
2023-05-19T00:26:54.444Z,102260.25
2023-05-19T00:29:22.957Z,102260.92
2023-05-19T00:31:51.707Z,102260.33
2023-05-19T00:34:19.938Z,102254.79
2023-05-19T00:36:48.360Z,102256.30
2023-05-19T00:39:16.687Z,102256.02
2023-05-19T00:41:45.561Z,102257.39
2023-05-19T00:44:13.467Z,102253.66
2023-05-19T00:46:42.262Z,102258.55
2023-05-19T00:49:10.361Z,102255.73
2023-05-19T00:51:40.654Z,102256.23
2023-05-19T00:54:10.686Z,102256.89
2023-05-19T00:56:41.517Z,102257.33
2023-05-19T00:59:11.130Z,102256.13
2023-05-19T01:01:41.027Z,102252.79
2023-05-19T01:04:11.379Z,102254.39
2023-05-19T01:06:40.778Z,102256.98
2023-05-19T01:09:12.021Z,102254.30
2023-05-19T01:11:41.107Z,102252.95
2023-05-19T01:14:11.015Z,102256.92
2023-05-19T01:16:58.286Z,102251.54
2023-05-19T01:20:02.198Z,102252.70
2023-05-19T01:22:55.012Z,102251.75
2023-05-19T01:26:03.907Z,102249.54
2023-05-19T01:29:03.244Z,102248.02
2023-05-19T01:31:35.957Z,102247.09
2023-05-19T01:34:07.694Z,102248.85
2023-05-19T01:36:38.843Z,102249.51
2023-05-19T01:39:09.060Z,102249.70
2023-05-19T01:41:42.668Z,102248.98
2023-05-19T01:44:12.931Z,102248.89
2023-05-19T01:46:43.810Z,102247.11
2023-05-19T01:49:14.353Z,102247.51
2023-05-19T01:51:44.428Z,102252.10
2023-05-19T01:54:14.311Z,102251.44
2023-05-19T01:57:30.309Z,102251.30
2023-05-19T02:00:25.822Z,102252.09
2023-05-19T02:03:07.850Z,102253.11
2023-05-19T02:05:59.178Z,102254.14
2023-05-19T02:09:07.462Z,102259.54
2023-05-19T02:11:57.842Z,102261.67
2023-05-19T02:14:39.389Z,102263.56
2023-05-19T02:17:13.654Z,102258.40
2023-05-19T02:19:44.813Z,102255.31
2023-05-19T02:22:14.695Z,102259.02
2023-05-19T02:24:46.646Z,102251.77
2023-05-19T02:27:16.504Z,102256.35
2023-05-19T02:29:46.327Z,102256.98
2023-05-19T02:32:16.287Z,102259.52
2023-05-19T02:34:46.343Z,102257.97
2023-05-19T02:37:16.569Z,102258.52
2023-05-19T02:39:46.468Z,102256.50
2023-05-19T02:42:18.363Z,102253.84
2023-05-19T02:44:49.006Z,102251.59
2023-05-19T02:47:18.842Z,102251.73
2023-05-19T02:49:48.627Z,102251.08
2023-05-19T02:52:18.469Z,102250.35
2023-05-19T02:54:48.266Z,102249.14
2023-05-19T02:57:18.122Z,102252.63
2023-05-19T02:59:47.943Z,102250.86
2023-05-19T03:02:18.118Z,102248.30
2023-05-19T03:04:48.022Z,102248.30
2023-05-19T03:07:17.916Z,102239.65
2023-05-19T03:09:47.732Z,102246.16
2023-05-19T03:12:19.402Z,102238.94
2023-05-19T03:14:47.709Z,102232.74
2023-05-19T03:17:16.092Z,102232.19
2023-05-19T03:19:44.488Z,102233.16
2023-05-19T03:22:13.107Z,102233.80
2023-05-19T03:24:42.208Z,102236.41
2023-05-19T03:27:11.821Z,102237.13
2023-05-19T03:29:41.855Z,102237.95
2023-05-19T03:32:11.741Z,102239.10
2023-05-19T03:34:41.686Z,102243.13
2023-05-19T03:37:11.437Z,102240.17
2023-05-19T03:39:39.985Z,102238.58
2023-05-19T03:42:12.902Z,102236.52
2023-05-19T03:44:43.014Z,102236.92
2023-05-19T03:47:12.879Z,102234.19
2023-05-19T03:49:42.873Z,102235.65
2023-05-19T03:52:13.155Z,102235.32
2023-05-19T03:54:43.250Z,102233.27
2023-05-19T03:57:14.619Z,102233.83
2023-05-19T03:59:44.772Z,102233.27
2023-05-19T04:02:14.564Z,102237.70
2023-05-19T04:04:44.621Z,102239.20
2023-05-19T04:07:14.510Z,102238.27
2023-05-19T04:09:45.193Z,102239.02
2023-05-19T04:12:18.536Z,102238.85
2023-05-19T04:14:48.413Z,102238.91
2023-05-19T04:17:18.246Z,102239.35
2023-05-19T04:19:48.054Z,102242.91
2023-05-19T04:22:17.980Z,102240.54
2023-05-19T04:24:48.732Z,102238.85
2023-05-19T04:27:19.472Z,102238.76
2023-05-19T04:29:49.634Z,102243.30
2023-05-19T04:32:19.551Z,102241.73
2023-05-19T04:34:49.323Z,102246.41
2023-05-19T04:37:20.042Z,102245.48
2023-05-19T04:39:49.974Z,102248.36
2023-05-19T04:42:20.222Z,102250.39
2023-05-19T04:44:51.649Z,102249.58
2023-05-19T04:47:21.719Z,102248.25
2023-05-19T04:49:55.656Z,102255.95
2023-05-19T04:52:25.585Z,102256.04
2023-05-19T04:54:55.500Z,102260.10
2023-05-19T04:57:25.574Z,102261.09
2023-05-19T05:00:00.144Z,102258.73
2023-05-19T05:02:30.139Z,102259.20
2023-05-19T05:05:00.223Z,102256.65
2023-05-19T05:07:31.670Z,102252.92
2023-05-19T05:10:02.427Z,102253.59
2023-05-19T05:12:32.945Z,102253.15
2023-05-19T05:15:04.127Z,102254.64
2023-05-19T05:17:35.572Z,102252.52
2023-05-19T05:20:07.004Z,102252.48
2023-05-19T05:22:38.833Z,102252.42
2023-05-19T05:25:09.882Z,102254.67
2023-05-19T05:27:39.717Z,102258.31
2023-05-19T05:30:09.708Z,102255.96
2023-05-19T05:32:40.100Z,102253.16
2023-05-19T05:35:10.584Z,102253.63
2023-05-19T05:37:40.520Z,102250.96
2023-05-19T05:40:11.227Z,102257.34
2023-05-19T05:42:41.541Z,102253.80
2023-05-19T05:45:11.696Z,102252.15
2023-05-19T05:47:42.119Z,102251.05
2023-05-19T05:50:13.705Z,102254.89
2023-05-19T05:52:48.146Z,102251.14
2023-05-19T05:55:18.826Z,102251.35
2023-05-19T05:57:50.640Z,102242.83
2023-05-19T06:00:22.433Z,102240.01
2023-05-19T06:02:52.367Z,102238.86
2023-05-19T06:05:22.549Z,102238.66
2023-05-19T06:07:52.506Z,102234.73
2023-05-19T06:10:23.933Z,102234.15
2023-05-19T06:12:53.845Z,102232.91
2023-05-19T06:15:22.863Z,102236.91
2023-05-19T06:17:50.591Z,102239.52
2023-05-19T06:20:20.035Z,102239.34
2023-05-19T06:22:47.413Z,102239.67
2023-05-19T06:25:16.882Z,102238.66
2023-05-19T06:27:44.303Z,102240.22
2023-05-19T06:30:13.848Z,102238.89
2023-05-19T06:32:41.387Z,102240.54
2023-05-19T06:35:11.251Z,102235.64
2023-05-19T06:37:41.124Z,102231.17
2023-05-19T06:40:12.661Z,102231.27
2023-05-19T06:42:42.525Z,102232.34
2023-05-19T06:45:12.972Z,102234.16
2023-05-19T06:47:44.523Z,102231.11
2023-05-19T06:50:15.185Z,102230.09
2023-05-19T06:52:46.997Z,102228.15
2023-05-19T06:55:17.461Z,102230.86
2023-05-19T06:57:47.317Z,102231.85
2023-05-19T07:00:20.511Z,102235.06
2023-05-19T07:02:52.126Z,102239.82
2023-05-19T07:05:22.379Z,102237.82
2023-05-19T07:07:52.246Z,102234.83
2023-05-19T07:10:22.289Z,102229.00
2023-05-19T07:12:52.052Z,102228.86
2023-05-19T07:15:21.987Z,102225.31
2023-05-19T07:17:51.776Z,102229.98
2023-05-19T07:20:21.732Z,102227.63
2023-05-19T07:22:51.580Z,102228.08
2023-05-19T07:25:21.766Z,102230.88
2023-05-19T07:27:51.626Z,102228.81
2023-05-19T07:30:21.499Z,102226.38
2023-05-19T07:32:51.370Z,102229.73
2023-05-19T07:35:24.956Z,102225.70
2023-05-19T07:37:54.809Z,102227.13
2023-05-19T07:40:24.898Z,102222.30
2023-05-19T07:42:54.711Z,102216.23
2023-05-19T07:45:24.741Z,102214.27
2023-05-19T07:47:54.978Z,102218.00
2023-05-19T07:50:25.567Z,102212.98
2023-05-19T07:52:56.566Z,102213.10
2023-05-19T07:55:26.401Z,102212.57
2023-05-19T07:57:56.272Z,102212.42
2023-05-19T08:00:26.246Z,102210.02
2023-05-19T08:02:57.402Z,102204.48
2023-05-19T08:05:27.490Z,102204.55
2023-05-19T08:07:57.620Z,102203.32
2023-05-19T08:10:27.615Z,102209.55
2023-05-19T08:12:57.476Z,102210.50
2023-05-19T08:15:27.442Z,102204.66
2023-05-19T08:17:57.370Z,102206.58
2023-05-19T08:20:27.293Z,102207.89
2023-05-19T08:22:57.154Z,102214.58
2023-05-19T08:25:27.011Z,102213.98
2023-05-19T08:27:56.814Z,102213.98
2023-05-19T08:30:26.653Z,102215.65
2023-05-19T08:32:56.535Z,102210.49
2023-05-19T08:35:26.754Z,102210.02
2023-05-19T08:37:56.829Z,102206.71
2023-05-19T08:40:31.714Z,102206.77
2023-05-19T08:43:01.984Z,102205.48
2023-05-19T08:45:34.653Z,102201.10
2023-05-19T08:48:05.303Z,102202.89
2023-05-19T08:50:41.924Z,102199.56
2023-05-19T08:53:31.874Z,102201.67
2023-05-19T08:56:21.727Z,102189.92
2023-05-19T08:58:52.204Z,102184.39
2023-05-19T09:01:23.787Z,102175.70
2023-05-19T09:03:53.950Z,102169.24
2023-05-19T09:06:25.634Z,102166.48
2023-05-19T09:08:55.848Z,102161.84
2023-05-19T09:11:26.167Z,102155.42
2023-05-19T09:13:56.025Z,102161.39
2023-05-19T09:16:27.893Z,102155.23
2023-05-19T09:19:01.116Z,102149.85
2023-05-19T09:21:33.562Z,102151.14
2023-05-19T09:24:08.244Z,102147.69
2023-05-19T09:26:43.057Z,102145.75
2023-05-19T09:29:17.633Z,102145.86
2023-05-19T09:32:00.434Z,102143.46
2023-05-19T09:34:31.156Z,102140.16
2023-05-19T09:37:01.047Z,102129.59
2023-05-19T09:39:31.017Z,102132.45
2023-05-19T09:42:07.853Z,102139.12
2023-05-19T09:44:37.779Z,102142.89
2023-05-19T09:47:05.200Z,102138.48
2023-05-19T09:49:32.921Z,102137.31
2023-05-19T09:52:04.270Z,102139.80
2023-05-19T09:54:34.832Z,102137.59
2023-05-19T09:57:08.339Z,102137.23
2023-05-19T09:59:39.178Z,102138.89
2023-05-19T10:02:17.240Z,102134.81
2023-05-19T10:04:49.695Z,102125.69
2023-05-19T10:07:21.204Z,102113.52
2023-05-19T10:09:53.260Z,102116.23
2023-05-19T10:12:26.044Z,102118.77
2023-05-19T10:14:56.907Z,102114.61
2023-05-19T10:17:28.458Z,102107.36
2023-05-19T10:20:00.091Z,102111.39
2023-05-19T10:22:30.075Z,102114.09
2023-05-19T10:24:59.877Z,102117.06
2023-05-19T10:27:32.442Z,102112.38
2023-05-19T10:30:18.846Z,102108.52
2023-05-19T10:32:49.759Z,102114.47
2023-05-19T10:35:45.343Z,102110.23
2023-05-19T10:38:38.626Z,102108.16
2023-05-19T10:41:16.647Z,102113.91
2023-05-19T10:44:37.567Z,102112.03
2023-05-19T10:47:08.487Z,102111.51
2023-05-19T10:49:39.982Z,102106.43
2023-05-19T10:52:25.928Z,102100.27
2023-05-19T10:54:56.097Z,102092.76
2023-05-19T10:57:28.288Z,102094.12
2023-05-19T10:59:57.441Z,102087.23
2023-05-19T11:02:40.572Z,102083.56
2023-05-19T11:05:18.608Z,102088.89
2023-05-19T11:08:08.068Z,102086.35
2023-05-19T11:10:38.993Z,102090.04
2023-05-19T11:13:22.688Z,102091.98
2023-05-19T11:15:52.739Z,102092.42
2023-05-19T11:18:22.665Z,102088.64
2023-05-19T11:21:02.220Z,102084.14
2023-05-19T11:23:39.866Z,102081.34
2023-05-19T11:26:09.694Z,102078.31
2023-05-19T11:28:41.179Z,102073.11
2023-05-19T11:31:11.754Z,102070.80
2023-05-19T11:33:41.944Z,102072.06
2023-05-19T11:36:12.914Z,102069.63
2023-05-19T11:38:45.162Z,102064.02
2023-05-19T11:41:18.196Z,102067.23
2023-05-19T11:43:48.648Z,102064.46
2023-05-19T11:46:18.677Z,102060.05
2023-05-19T11:48:50.594Z,102064.77
2023-05-19T11:51:22.695Z,102063.25
2023-05-19T11:53:54.283Z,102060.63
2023-05-19T11:56:24.131Z,102062.95
2023-05-19T11:58:54.662Z,102070.70
2023-05-19T12:01:27.022Z,102069.42
2023-05-19T12:03:56.952Z,102068.06
2023-05-19T12:06:28.664Z,102068.77
2023-05-19T12:08:59.228Z,102068.98
2023-05-19T12:11:29.246Z,102069.38
2023-05-19T12:13:59.643Z,102066.56
2023-05-19T12:16:36.408Z,102064.02
2023-05-19T12:19:06.667Z,102060.85
2023-05-19T12:21:37.399Z,102062.80
2023-05-19T12:24:07.862Z,102063.04
2023-05-19T12:26:37.717Z,102064.98
2023-05-19T12:29:07.676Z,102060.34
2023-05-19T12:31:38.094Z,102060.34
2023-05-19T12:34:08.318Z,102059.91
2023-05-19T12:36:38.712Z,102060.06
2023-05-19T12:39:09.497Z,102057.80
2023-05-19T12:41:39.441Z,102049.63
2023-05-19T12:44:16.663Z,102047.80
2023-05-19T12:46:46.502Z,102048.85
2023-05-19T12:49:17.068Z,102045.11
2023-05-19T12:51:54.476Z,102039.02
2023-05-19T12:54:24.323Z,102032.23
2023-05-19T12:56:54.285Z,102030.27
2023-05-19T12:59:37.343Z,102024.95
2023-05-19T13:02:08.856Z,102033.95
2023-05-19T13:04:38.856Z,102033.06
2023-05-19T13:07:08.923Z,102035.45
2023-05-19T13:09:38.754Z,102033.60
2023-05-19T13:12:13.021Z,102038.16
2023-05-19T13:14:43.679Z,102040.02
2023-05-19T13:17:11.704Z,102038.70
2023-05-19T13:19:42.117Z,102035.80
2023-05-19T13:22:10.068Z,102029.81
2023-05-19T13:24:39.879Z,102029.56
2023-05-19T13:27:08.352Z,102021.42
2023-05-19T13:29:38.122Z,102020.17
2023-05-19T13:32:07.094Z,102020.84
2023-05-19T13:34:35.526Z,102024.27
2023-05-19T13:37:04.354Z,102020.17
2023-05-19T13:39:34.379Z,102015.83
2023-05-19T13:42:05.527Z,102008.41
2023-05-19T13:44:35.529Z,102014.17
2023-05-19T13:47:05.776Z,102013.48
2023-05-19T13:49:35.696Z,102018.20
2023-05-19T13:52:07.211Z,102021.84
2023-05-19T13:54:37.236Z,102025.39
2023-05-19T13:57:07.446Z,102029.77
2023-05-19T13:59:45.868Z,102034.19
2023-05-19T14:02:23.331Z,102031.33
2023-05-19T14:04:51.948Z,102028.81
2023-05-19T14:07:20.231Z,102031.98
2023-05-19T14:09:48.466Z,102027.14
2023-05-19T14:12:16.826Z,102018.63
2023-05-19T14:14:45.492Z,102017.25
2023-05-19T14:17:13.658Z,102021.75
2023-05-19T14:19:42.122Z,102022.41
2023-05-19T14:22:10.542Z,102021.60
2023-05-19T14:24:39.423Z,102023.17
2023-05-19T14:27:07.305Z,102019.63
2023-05-19T14:29:35.835Z,102016.17
2023-05-19T14:32:05.834Z,102014.98
2023-05-19T14:34:35.702Z,102014.08
2023-05-19T14:37:04.221Z,102019.02
2023-05-19T14:39:33.977Z,102029.86
2023-05-19T14:42:01.148Z,102031.82
2023-05-19T14:44:33.108Z,102028.56
2023-05-19T14:47:04.134Z,102031.38
2023-05-19T14:49:34.039Z,102037.00
2023-05-19T14:52:04.324Z,102034.71
2023-05-19T14:54:34.353Z,102030.56
2023-05-19T14:57:04.539Z,102023.88
2023-05-19T14:59:38.019Z,102023.33
2023-05-19T15:02:07.957Z,102023.17
2023-05-19T15:04:37.889Z,102020.68
2023-05-19T15:07:10.322Z,102022.95
2023-05-19T15:09:38.988Z,102026.52
2023-05-19T15:12:12.108Z,102022.25
2023-05-19T15:14:42.261Z,102028.98
2023-05-19T15:17:12.251Z,102027.58
2023-05-19T15:19:42.801Z,102027.66
2023-05-19T15:22:12.695Z,102025.45
2023-05-19T15:24:42.566Z,102022.13
2023-05-19T15:27:12.684Z,102021.10
2023-05-19T15:29:42.601Z,102026.43
2023-05-19T15:32:12.519Z,102025.66
2023-05-19T15:34:42.404Z,102027.77
2023-05-19T15:37:12.204Z,102030.45
2023-05-19T15:39:42.086Z,102026.92
2023-05-19T15:42:15.717Z,102021.57
2023-05-19T15:44:46.030Z,102020.14
2023-05-19T15:47:15.891Z,102025.83
2023-05-19T15:49:46.025Z,102026.84
2023-05-19T15:52:15.921Z,102028.14
2023-05-19T15:54:46.691Z,102031.50
2023-05-19T15:57:16.528Z,102034.25
2023-05-19T15:59:46.350Z,102021.92
2023-05-19T16:02:16.285Z,102019.52
2023-05-19T16:04:46.217Z,102021.01
2023-05-19T16:07:16.929Z,102019.30
2023-05-19T16:09:46.850Z,102016.40
2023-05-19T16:12:16.637Z,102013.70
2023-05-19T16:14:46.553Z,102013.86
2023-05-19T16:17:16.379Z,102015.22
2023-05-19T16:19:46.653Z,102012.67
2023-05-19T16:22:18.038Z,102013.36
2023-05-19T16:24:47.906Z,102009.29
2023-05-19T16:27:17.760Z,102003.23
2023-05-19T16:29:47.584Z,102002.61
2023-05-19T16:32:17.458Z,102002.02
2023-05-19T16:34:47.323Z,102004.08
2023-05-19T16:37:17.090Z,102010.44
2023-05-19T16:39:48.452Z,102008.81
2023-05-19T16:42:18.504Z,102010.78
2023-05-19T16:44:48.605Z,102008.09
2023-05-19T16:47:18.716Z,102010.13
2023-05-19T16:49:49.295Z,102006.98
2023-05-19T16:52:20.137Z,102002.89
2023-05-19T16:54:50.193Z,102003.21
2023-05-19T16:57:20.049Z,102003.97
2023-05-19T16:59:50.267Z,102004.98
2023-05-19T17:02:20.171Z,102013.22
2023-05-19T17:04:50.056Z,102012.43
2023-05-19T17:07:19.868Z,102016.17
2023-05-19T17:09:49.671Z,102016.29
2023-05-19T17:12:19.571Z,102017.09
2023-05-19T17:14:51.991Z,102021.19
2023-05-19T17:17:21.905Z,102016.80
2023-05-19T17:19:52.268Z,102020.45
2023-05-19T17:22:22.316Z,102020.63
2023-05-19T17:24:50.788Z,102023.29
2023-05-19T17:27:18.953Z,102024.52
2023-05-19T17:29:47.438Z,102026.02
2023-05-19T17:32:15.801Z,102023.21
2023-05-19T17:34:44.229Z,102026.42
2023-05-19T17:37:11.290Z,102025.88
2023-05-19T17:39:38.448Z,102029.45
2023-05-19T17:42:10.746Z,102032.01
2023-05-19T17:44:38.267Z,102029.16
2023-05-19T17:47:08.185Z,102033.75
2023-05-19T17:49:35.187Z,102031.16
2023-05-19T17:52:04.346Z,102033.58
2023-05-19T17:54:33.010Z,102041.15
2023-05-19T17:57:06.491Z,102036.77
2023-05-19T17:59:36.964Z,102034.98
2023-05-19T18:02:08.413Z,102036.84
2023-05-19T18:04:38.911Z,102036.70
2023-05-19T18:07:10.245Z,102037.08
2023-05-19T18:09:46.344Z,102036.27
2023-05-19T18:12:17.588Z,102034.11
2023-05-19T18:14:47.345Z,102034.30
2023-05-19T18:17:17.538Z,102029.91
2023-05-19T18:19:47.430Z,102036.23
2023-05-19T18:22:17.697Z,102035.94
2023-05-19T18:24:47.592Z,102038.20
2023-05-19T18:27:17.711Z,102037.45
2023-05-19T18:29:47.570Z,102039.70
2023-05-19T18:32:17.721Z,102035.59
2023-05-19T18:34:47.653Z,102034.99
2023-05-19T18:37:18.277Z,102041.67
2023-05-19T18:39:48.060Z,102044.86
2023-05-19T18:42:17.824Z,102045.72
2023-05-19T18:44:47.755Z,102048.48
2023-05-19T18:47:22.687Z,102049.17
2023-05-19T18:49:52.630Z,102051.00
2023-05-19T18:52:22.484Z,102054.25
2023-05-19T18:54:52.541Z,102056.80
2023-05-19T18:57:22.432Z,102060.62
2023-05-19T18:59:53.033Z,102061.59
2023-05-19T19:02:22.751Z,102063.41
2023-05-19T19:04:52.757Z,102060.94
2023-05-19T19:07:25.892Z,102062.72
2023-05-19T19:09:55.898Z,102066.10
2023-05-19T19:12:26.204Z,102065.95
2023-05-19T19:14:56.253Z,102064.46
2023-05-19T19:17:26.665Z,102072.41
2023-05-19T19:19:56.834Z,102070.12
2023-05-19T19:22:26.717Z,102073.23
2023-05-19T19:24:56.592Z,102074.57
2023-05-19T19:27:31.044Z,102075.45
2023-05-19T19:30:01.663Z,102070.77
2023-05-19T19:32:32.597Z,102077.19
2023-05-19T19:35:02.392Z,102081.79
2023-05-19T19:37:32.192Z,102083.20
2023-05-19T19:40:02.141Z,102086.16
2023-05-19T19:42:32.037Z,102086.67
2023-05-19T19:45:02.126Z,102087.88
2023-05-19T19:47:32.753Z,102086.41
2023-05-19T19:50:05.740Z,102086.29
2023-05-19T19:52:35.680Z,102084.54
2023-05-19T19:55:06.422Z,102086.64
2023-05-19T19:57:36.242Z,102091.38
2023-05-19T20:00:08.561Z,102094.13
2023-05-19T20:02:45.502Z,102094.24
2023-05-19T20:05:25.920Z,102097.02
2023-05-19T20:07:55.799Z,102096.29
2023-05-19T20:10:25.697Z,102095.77
2023-05-19T20:12:54.160Z,102093.90
2023-05-19T20:15:22.568Z,102099.70
2023-05-19T20:17:51.231Z,102102.63
2023-05-19T20:20:19.461Z,102103.14
2023-05-19T20:22:47.799Z,102106.10
2023-05-19T20:25:16.187Z,102107.10
2023-05-19T20:27:44.772Z,102106.98
2023-05-19T20:30:13.170Z,102111.48
2023-05-19T20:32:41.737Z,102109.59
2023-05-19T20:35:10.041Z,102106.79
2023-05-19T20:37:39.478Z,102110.00
2023-05-19T20:40:07.786Z,102113.10
2023-05-19T20:42:35.257Z,102115.66
2023-05-19T20:45:04.326Z,102119.15
2023-05-19T20:47:32.005Z,102124.67
2023-05-19T20:50:00.797Z,102122.00
2023-05-19T20:52:29.000Z,102125.30
2023-05-19T20:54:57.330Z,102126.63
2023-05-19T20:57:27.680Z,102122.74
2023-05-19T20:59:57.096Z,102123.94
2023-05-19T21:02:25.633Z,102129.38
2023-05-19T21:04:54.066Z,102123.73
2023-05-19T21:07:22.547Z,102121.89
2023-05-19T21:09:51.541Z,102119.08
2023-05-19T21:12:23.546Z,102117.09
2023-05-19T21:14:53.491Z,102114.44
2023-05-19T21:17:23.324Z,102117.28
2023-05-19T21:19:57.796Z,102118.42
2023-05-19T21:22:28.201Z,102122.35
2023-05-19T21:24:58.112Z,102123.71
2023-05-19T21:27:27.967Z,102130.38
2023-05-19T21:29:57.786Z,102135.88
2023-05-19T21:32:29.657Z,102139.19
2023-05-19T21:35:00.002Z,102145.77
2023-05-19T21:37:29.864Z,102146.45
2023-05-19T21:39:59.682Z,102153.06
2023-05-19T21:42:29.521Z,102150.98
2023-05-19T21:44:59.437Z,102154.05
2023-05-19T21:47:29.264Z,102158.41
2023-05-19T21:49:59.172Z,102158.09
2023-05-19T21:52:29.050Z,102157.27
2023-05-19T21:54:58.873Z,102156.24
2023-05-19T21:57:28.697Z,102158.39
2023-05-19T21:59:58.596Z,102157.56
2023-05-19T22:02:28.601Z,102160.77
2023-05-19T22:04:58.424Z,102156.61
2023-05-19T22:07:28.666Z,102153.43
2023-05-19T22:09:58.480Z,102152.96
2023-05-19T22:12:27.015Z,102153.90
2023-05-19T22:14:56.058Z,102155.52
2023-05-19T22:17:24.440Z,102157.40
2023-05-19T22:19:52.753Z,102156.66
2023-05-19T22:22:21.431Z,102157.76
2023-05-19T22:24:50.455Z,102156.50
2023-05-19T22:27:18.404Z,102159.61
2023-05-19T22:29:46.751Z,102162.24
2023-05-19T22:32:17.977Z,102161.61
2023-05-19T22:34:46.826Z,102161.39
2023-05-19T22:37:15.261Z,102161.34
2023-05-19T22:39:43.836Z,102162.94
2023-05-19T22:42:18.472Z,102164.44
2023-05-19T22:44:48.279Z,102164.42
2023-05-19T22:47:18.162Z,102167.77
2023-05-19T22:49:51.167Z,102165.75
2023-05-19T22:52:21.190Z,102167.56
2023-05-19T22:54:51.068Z,102167.58
2023-05-19T22:57:21.039Z,102165.11
2023-05-19T22:59:50.903Z,102168.69
2023-05-19T23:02:20.799Z,102170.05
2023-05-19T23:04:50.638Z,102170.99
2023-05-19T23:07:20.485Z,102167.62
2023-05-19T23:09:50.443Z,102169.42
2023-05-19T23:12:20.635Z,102166.61
2023-05-19T23:14:51.046Z,102164.91
2023-05-19T23:17:20.942Z,102166.13
2023-05-19T23:19:50.781Z,102168.06
2023-05-19T23:22:20.803Z,102165.89
2023-05-19T23:24:50.820Z,102164.73
2023-05-19T23:27:20.681Z,102156.63
2023-05-19T23:29:51.324Z,102153.52
2023-05-19T23:32:21.103Z,102154.58
2023-05-19T23:34:51.046Z,102154.86
2023-05-19T23:37:21.054Z,102157.21
2023-05-19T23:39:51.145Z,102156.17
2023-05-19T23:42:21.104Z,102156.96
2023-05-19T23:44:51.038Z,102155.48
2023-05-19T23:47:20.835Z,102151.16
2023-05-19T23:49:50.943Z,102149.63
2023-05-19T23:52:20.886Z,102147.19
2023-05-19T23:54:49.258Z,102146.02
2023-05-19T23:57:19.141Z,102149.39
2023-05-19T23:59:49.073Z,102151.77
